Time;durP1;ratioP1;P1;durP2;ratioP2;P2;SDS_P1;SDS_P2;PMS_P1;PMS_P2;Temp;Humidity;BMP_temperature;BMP_pressure;BME280_temperature;BME280_humidity;BME280_pressure;Samples;Min_cycle;Max_cycle;Signal;HPM_P1;HPM_P2
2022/08/24 00:01:29;;;;;;;4.70;4.30;;;21.20;99.90;;;;;;5091355;28;20196;-43
2022/08/24 00:03:56;;;;;;;4.97;4.57;;;21.10;99.90;;;;;;5091644;28;20204;-44
2022/08/24 00:06:24;;;;;;;9.53;3.70;;;21.00;99.90;;;;;;5091422;28;20193;-45
2022/08/24 00:08:52;;;;;;;4.30;3.90;;;21.00;99.90;;;;;;5089386;28;20460;-44
2022/08/24 00:11:18;;;;;;;4.20;3.80;;;21.00;99.90;;;;;;5091210;28;20430;-46
2022/08/24 00:13:44;;;;;;;5.83;4.10;;;20.90;99.90;;;;;;5091580;28;20842;-44
2022/08/24 00:16:11;;;;;;;4.43;4.03;;;20.90;99.90;;;;;;5091093;28;20453;-43
2022/08/24 00:18:38;;;;;;;4.67;4.27;;;20.90;99.90;;;;;;5090673;28;20433;-43
2022/08/24 00:21:04;;;;;;;4.20;3.90;;;20.90;99.90;;;;;;5090959;28;20458;-44
2022/08/24 00:23:30;;;;;;;4.50;4.10;;;20.90;99.90;;;;;;5090965;28;20432;-45
2022/08/24 00:25:56;;;;;;;5.40;4.10;;;20.90;99.90;;;;;;5090905;28;20837;-43
2022/08/24 00:28:22;;;;;;;4.20;3.60;;;20.80;99.90;;;;;;5090454;28;20535;-46
2022/08/24 00:30:49;;;;;;;4.33;3.93;;;20.80;99.90;;;;;;5090949;28;20390;-46
2022/08/24 00:33:15;;;;;;;5.53;4.00;;;20.80;99.90;;;;;;5091081;28;20419;-45
2022/08/24 00:35:41;;;;;;;7.70;3.80;;;20.90;99.90;;;;;;5090872;28;20812;-43
2022/08/24 00:38:07;;;;;;;4.27;3.87;;;20.90;99.90;;;;;;5089370;28;20439;-44
2022/08/24 00:40:36;;;;;;;5.00;4.50;;;20.80;99.90;;;;;;5090834;28;20552;-45
2022/08/24 00:43:05;;;;;;;4.20;3.77;;;20.80;99.90;;;;;;5090865;28;20533;-44
2022/08/24 00:45:34;;;;;;;4.30;3.90;;;20.80;99.90;;;;;;5089426;28;20430;-44
2022/08/24 00:48:10;;;;;;;6.10;4.60;;;20.70;99.90;;;;;;5089942;28;20473;-44
2022/08/24 00:50:57;;;;;;;4.47;3.77;;;20.80;99.90;;;;;;5090172;28;20450;-48
2022/08/24 00:53:36;;;;;;;5.50;4.20;;;20.70;99.90;;;;;;5090755;28;20426;-43
2022/08/24 00:56:13;;;;;;;7.23;4.13;;;20.70;99.90;;;;;;5089518;28;20954;-45
2022/08/24 00:58:47;;;;;;;5.00;3.73;;;20.70;99.90;;;;;;5089907;28;20783;-44
2022/08/24 01:01:13;;;;;;;8.77;4.33;;;20.60;99.90;;;;;;5090132;28;20426;-45
2022/08/24 01:03:41;;;;;;;6.33;3.80;;;20.60;99.90;;;;;;5090333;28;20479;-44
2022/08/24 01:06:07;;;;;;;6.23;4.40;;;20.50;99.90;;;;;;5090357;28;20434;-44
2022/08/24 01:08:34;;;;;;;4.70;4.30;;;20.40;99.90;;;;;;5089449;28;20511;-44
2022/08/24 01:11:17;;;;;;;4.47;3.93;;;20.30;99.90;;;;;;5090206;28;20435;-43
2022/08/24 01:13:45;;;;;;;4.23;3.93;;;20.30;99.90;;;;;;5089679;28;20422;-44
2022/08/24 01:16:13;;;;;;;3.83;3.50;;;20.20;99.90;;;;;;5088796;28;20438;-44
2022/08/24 01:18:51;;;;;;;5.70;3.90;;;20.20;99.90;;;;;;5089476;28;20430;-48
2022/08/24 01:21:20;;;;;;;4.20;3.80;;;20.10;99.90;;;;;;5087963;28;20844;-44
2022/08/24 01:23:56;;;;;;;5.80;4.40;;;20.10;99.90;;;;;;5089970;28;20421;-43
2022/08/24 01:26:35;;;;;;;5.77;4.50;;;20.10;99.90;;;;;;5090041;28;20842;-43
2022/08/24 01:29:07;;;;;;;4.40;4.00;;;20.10;99.90;;;;;;5089556;28;20466;-43
2022/08/24 01:31:33;;;;;;;6.60;3.83;;;20.10;99.90;;;;;;5088730;28;20418;-47
2022/08/24 01:33:59;;;;;;;4.47;4.00;;;20.10;99.90;;;;;;5089717;28;20433;-43
2022/08/24 01:36:35;;;;;;;4.73;4.20;;;20.20;99.90;;;;;;5089549;28;20810;-43
2022/08/24 01:39:08;;;;;;;4.70;4.30;;;20.30;99.90;;;;;;5089566;28;20519;-45
2022/08/24 01:41:34;;;;;;;4.97;4.47;;;20.30;99.90;;;;;;5089683;28;20426;-44
2022/08/24 01:44:00;;;;;;;4.70;3.93;;;20.20;99.90;;;;;;5089577;28;20516;-44
2022/08/24 01:46:26;;;;;;;4.33;3.90;;;20.20;99.90;;;;;;5089709;28;21035;-47
2022/08/24 01:48:52;;;;;;;4.73;4.33;;;20.10;99.90;;;;;;5088008;28;20261;-44
2022/08/24 01:51:19;;;;;;;4.33;3.83;;;20.20;99.90;;;;;;5089392;28;21195;-44
2022/08/24 01:53:45;;;;;;;5.87;4.63;;;20.20;99.90;;;;;;5074455;28;20654;-44
2022/08/24 01:56:11;;;;;;;6.20;4.47;;;20.30;99.90;;;;;;5088612;28;20481;-43
2022/08/24 01:58:46;;;;;;;4.73;4.20;;;20.30;99.90;;;;;;5087315;28;20199;-47
2022/08/24 02:01:16;;;;;;;5.93;4.57;;;20.40;99.90;;;;;;5089435;28;20432;-44
2022/08/24 02:03:42;;;;;;;4.43;4.00;;;20.30;99.90;;;;;;5088895;28;20434;-46
2022/08/24 02:06:08;;;;;;;4.20;3.80;;;20.20;99.90;;;;;;5089274;28;20426;-44
2022/08/24 02:08:35;;;;;;;5.67;4.60;;;20.20;99.90;;;;;;5088516;28;20523;-42
2022/08/24 02:11:08;;;;;;;5.90;4.50;;;20.10;99.90;;;;;;5089217;28;20434;-45
2022/08/24 02:13:36;;;;;;;4.67;4.30;;;19.90;99.90;;;;;;5089170;28;20419;-43
2022/08/24 02:16:02;;;;;;;6.83;4.70;;;19.90;99.90;;;;;;5088890;28;20422;-43
2022/08/24 02:18:27;;;;;;;4.43;4.10;;;19.70;99.90;;;;;;5088736;28;20644;-43
2022/08/24 02:20:53;;;;;;;4.83;4.43;;;19.70;99.90;;;;;;5087719;28;20605;-44
2022/08/24 02:23:19;;;;;;;4.70;4.30;;;19.70;99.90;;;;;;5089184;28;20243;-45
2022/08/24 02:25:46;;;;;;;5.40;4.63;;;19.70;99.90;;;;;;5089040;28;20480;-44
2022/08/24 02:28:12;;;;;;;5.10;4.60;;;19.60;99.90;;;;;;5088295;28;20568;-43
2022/08/24 02:30:39;;;;;;;6.00;3.93;;;19.60;99.90;;;;;;5088667;28;20455;-44
2022/08/24 02:33:06;;;;;;;6.77;4.50;;;19.60;99.90;;;;;;5089016;28;20826;-44
2022/08/24 02:35:31;;;;;;;5.93;3.87;;;19.60;99.90;;;;;;5087603;28;20452;-44
2022/08/24 02:37:57;;;;;;;4.53;4.13;;;19.50;99.90;;;;;;5088304;28;20422;-44
2022/08/24 02:40:23;;;;;;;5.53;4.03;;;19.50;99.90;;;;;;5088811;28;20199;-44
2022/08/24 02:42:49;;;;;;;4.53;4.13;;;19.50;99.90;;;;;;5088956;28;20184;-44
2022/08/24 02:45:15;;;;;;;5.17;3.97;;;19.50;99.90;;;;;;5088633;28;20422;-43
2022/08/24 02:47:41;;;;;;;6.50;4.50;;;19.50;99.90;;;;;;5088201;28;20224;-46
2022/08/24 02:50:11;;;;;;;4.80;4.23;;;19.50;99.90;;;;;;5087402;28;20508;-45
2022/08/24 02:52:38;;;;;;;5.50;4.37;;;19.60;99.90;;;;;;5088820;28;20482;-43
2022/08/24 02:55:06;;;;;;;4.50;4.10;;;19.60;99.90;;;;;;5088743;28;20572;-43
2022/08/24 02:57:32;;;;;;;4.67;4.20;;;19.50;99.90;;;;;;5087098;28;20436;-42
2022/08/24 02:59:58;;;;;;;5.00;4.57;;;19.50;99.90;;;;;;5088582;28;20426;-45
2022/08/24 03:02:24;;;;;;;4.47;4.00;;;19.40;99.90;;;;;;5092585;28;20184;-43
2022/08/24 03:04:50;;;;;;;7.03;4.40;;;19.40;99.90;;;;;;5092541;28;20453;-44
2022/08/24 03:07:15;;;;;;;6.40;4.33;;;19.40;99.90;;;;;;5091901;28;20933;-45
2022/08/24 03:09:41;;;;;;;7.10;4.90;;;19.60;99.90;;;;;;5092743;28;20223;-44
2022/08/24 03:12:07;;;;;;;5.00;4.60;;;19.50;99.90;;;;;;5092499;28;20923;-45
2022/08/24 03:14:34;;;;;;;4.27;3.87;;;19.50;99.90;;;;;;5092445;28;20643;-44
2022/08/24 03:17:00;;;;;;;4.53;4.20;;;19.40;99.90;;;;;;5091837;28;20188;-43
2022/08/24 03:19:26;;;;;;;6.63;4.30;;;19.30;99.90;;;;;;5092463;28;20511;-43
2022/08/24 03:21:53;;;;;;;5.03;4.30;;;19.30;99.90;;;;;;5092218;28;20216;-44
2022/08/24 03:24:19;;;;;;;4.00;3.70;;;19.30;99.90;;;;;;5092237;28;20655;-44
2022/08/24 03:26:44;;;;;;;4.93;3.90;;;19.30;99.90;;;;;;5089937;28;20426;-46
2022/08/24 03:29:11;;;;;;;4.90;4.33;;;19.20;99.90;;;;;;5092263;28;20466;-44
2022/08/24 03:31:36;;;;;;;4.20;3.87;;;19.20;99.90;;;;;;5092097;28;20242;-43
2022/08/24 03:34:03;;;;;;;4.13;3.83;;;19.20;99.90;;;;;;5092228;28;20449;-43
2022/08/24 03:36:29;;;;;;;4.57;4.10;;;19.30;99.90;;;;;;5091980;28;20646;-46
2022/08/24 03:38:54;;;;;;;5.50;4.00;;;19.30;99.90;;;;;;5091573;28;20446;-45
2022/08/24 03:41:20;;;;;;;5.60;3.73;;;19.30;99.90;;;;;;5091923;28;20196;-43
2022/08/24 03:43:47;;;;;;;4.63;4.00;;;19.30;99.90;;;;;;5092003;28;20708;-45
2022/08/24 03:46:26;;;;;;;5.63;4.10;;;19.20;99.90;;;;;;5091901;28;20719;-44
2022/08/24 03:48:53;;;;;;;4.33;3.63;;;19.40;99.90;;;;;;5091325;28;20785;-45
2022/08/24 03:51:22;;;;;;;5.73;4.13;;;19.50;99.90;;;;;;5091982;28;20430;-45
2022/08/24 03:53:49;;;;;;;4.17;3.77;;;19.70;99.90;;;;;;5091567;28;20426;-48
2022/08/24 03:56:17;;;;;;;6.63;4.07;;;19.80;99.90;;;;;;5090998;28;20544;-46
2022/08/24 03:58:43;;;;;;;5.93;3.60;;;19.90;99.90;;;;;;5091124;28;20504;-44
2022/08/24 04:01:09;;;;;;;4.83;4.43;;;20.00;99.90;;;;;;5090450;28;20430;-44
2022/08/24 04:03:39;;;;;;;4.60;4.20;;;20.10;99.90;;;;;;5091330;28;20199;-45
2022/08/24 04:06:06;;;;;;;4.47;4.07;;;20.20;99.90;;;;;;5091582;28;20431;-43
2022/08/24 04:08:33;;;;;;;5.63;4.27;;;20.20;99.90;;;;;;5090430;28;20568;-44
2022/08/24 04:11:00;;;;;;;5.20;4.30;;;20.10;99.90;;;;;;5090109;28;20478;-44
2022/08/24 04:13:26;;;;;;;6.70;4.50;;;20.10;99.90;;;;;;5090136;28;20434;-43
2022/08/24 04:15:51;;;;;;;4.47;4.03;;;20.20;99.90;;;;;;5091449;28;20423;-43
2022/08/24 04:18:18;;;;;;;4.23;3.93;;;20.20;99.90;;;;;;5090518;28;20562;-44
2022/08/24 04:20:45;;;;;;;4.50;3.87;;;20.40;99.90;;;;;;5091369;28;20188;-47
2022/08/24 04:23:11;;;;;;;5.13;3.87;;;20.30;99.90;;;;;;5090664;28;20972;-42
2022/08/24 04:25:45;;;;;;;3.83;3.50;;;20.30;99.90;;;;;;5091365;28;20431;-44
2022/08/24 04:28:12;;;;;;;5.67;4.17;;;20.30;99.90;;;;;;5077974;28;20458;-45
2022/08/24 04:30:40;;;;;;;4.97;4.40;;;20.20;99.90;;;;;;5091076;28;20942;-43
2022/08/24 04:33:05;;;;;;;4.60;4.30;;;20.30;99.90;;;;;;5091076;28;20431;-44
2022/08/24 04:35:36;;;;;;;4.63;4.23;;;20.30;99.90;;;;;;5090625;28;20471;-44
2022/08/24 04:38:02;;;;;;;4.30;4.00;;;20.30;99.90;;;;;;5090698;28;20229;-43
2022/08/24 04:40:28;;;;;;;4.60;4.20;;;20.40;99.90;;;;;;5090775;28;20869;-44
2022/08/24 04:42:54;;;;;;;5.70;4.20;;;20.40;99.90;;;;;;5089468;28;20525;-45
2022/08/24 04:45:19;;;;;;;5.57;4.33;;;20.40;99.90;;;;;;5082314;28;20269;-43
2022/08/24 04:47:45;;;;;;;5.23;3.77;;;20.40;99.90;;;;;;5088744;28;20568;-44
2022/08/24 04:50:11;;;;;;;5.37;4.77;;;20.40;99.90;;;;;;5089022;28;20792;-45
2022/08/24 04:52:37;;;;;;;8.17;5.00;;;20.40;99.90;;;;;;5090278;28;20532;-45
2022/08/24 04:55:03;;;;;;;4.30;4.00;;;20.30;99.90;;;;;;5090212;28;20430;-44
2022/08/24 04:57:28;;;;;;;5.30;4.07;;;20.40;99.90;;;;;;5088729;28;20555;-44
2022/08/24 04:59:55;;;;;;;3.90;3.60;;;20.40;99.90;;;;;;5090276;28;20185;-43
2022/08/24 05:02:21;;;;;;;4.57;4.00;;;20.40;99.90;;;;;;5089355;28;20191;-44
2022/08/24 05:04:47;;;;;;;4.43;4.13;;;20.40;99.90;;;;;;5089746;28;20529;-45
2022/08/24 05:07:13;;;;;;;4.70;4.30;;;20.40;99.90;;;;;;5089771;28;20510;-46
2022/08/24 05:09:38;;;;;;;4.97;4.43;;;20.40;99.90;;;;;;5090159;28;20216;-43
2022/08/24 05:12:04;;;;;;;4.83;4.43;;;20.50;99.90;;;;;;5090259;28;20188;-43
2022/08/24 05:14:30;;;;;;;4.50;4.10;;;20.60;99.90;;;;;;5088889;28;20230;-43
2022/08/24 05:16:56;;;;;;;5.03;4.30;;;20.70;99.90;;;;;;5089376;28;20192;-44
2022/08/24 05:19:22;;;;;;;4.63;3.73;;;20.70;99.90;;;;;;5089757;28;20188;-45
2022/08/24 05:21:48;;;;;;;4.47;4.07;;;20.70;99.90;;;;;;5090082;28;20546;-45
2022/08/24 05:24:14;;;;;;;3.87;3.60;;;20.80;99.90;;;;;;5089814;28;20865;-45
2022/08/24 05:26:39;;;;;;;8.17;4.43;;;20.80;99.90;;;;;;5089313;28;20469;-45
2022/08/24 05:29:05;;;;;;;4.63;3.90;;;20.80;99.90;;;;;;5089448;28;20625;-44
2022/08/24 05:31:32;;;;;;;5.03;4.13;;;20.80;99.90;;;;;;5089971;28;20184;-45
2022/08/24 05:33:59;;;;;;;6.33;4.03;;;20.80;99.90;;;;;;5088244;28;20184;-45
2022/08/24 05:36:28;;;;;;;5.00;3.90;;;20.80;99.90;;;;;;5089902;28;20770;-46
2022/08/24 05:38:56;;;;;;;4.30;3.90;;;20.90;99.90;;;;;;5089289;28;20422;-43
2022/08/24 05:41:22;;;;;;;3.90;3.60;;;20.90;99.90;;;;;;5089534;28;20970;-43
2022/08/24 05:43:48;;;;;;;5.83;4.20;;;21.00;99.90;;;;;;5089579;28;20983;-47
2022/08/24 05:46:14;;;;;;;4.57;4.17;;;21.10;99.90;;;;;;5089587;28;20555;-46
2022/08/24 05:48:40;;;;;;;5.47;4.50;;;21.30;99.90;;;;;;5088245;28;20709;-43
2022/08/24 05:51:07;;;;;;;4.60;4.20;;;21.40;99.90;;;;;;5089342;28;20434;-42
2022/08/24 05:53:33;;;;;;;4.10;3.33;;;21.50;99.90;;;;;;5074257;28;20447;-42
2022/08/24 05:56:10;;;;;;;4.83;4.00;;;21.60;99.90;;;;;;5083056;28;20418;-44
2022/08/24 05:58:37;;;;;;;5.10;4.13;;;21.60;99.90;;;;;;5088438;28;20422;-43
2022/08/24 06:01:07;;;;;;;4.47;4.07;;;21.80;99.90;;;;;;5089106;28;20462;-47
2022/08/24 06:03:33;;;;;;;4.53;4.13;;;22.00;99.90;;;;;;5088820;28;20437;-46
2022/08/24 06:06:02;;;;;;;4.43;4.03;;;22.10;99.90;;;;;;5088773;28;20862;-44
2022/08/24 06:08:29;;;;;;;6.30;4.70;;;22.30;99.90;;;;;;5087700;28;20465;-45
2022/08/24 06:10:54;;;;;;;5.20;4.23;;;22.40;99.90;;;;;;5089136;28;20429;-46
2022/08/24 06:13:20;;;;;;;4.27;3.77;;;22.50;99.90;;;;;;5089095;28;20933;-46
2022/08/24 06:15:46;;;;;;;4.27;3.87;;;22.60;99.90;;;;;;5088785;28;20325;-43
2022/08/24 06:18:11;;;;;;;4.47;4.10;;;22.70;99.90;;;;;;5088200;28;20199;-44
2022/08/24 06:20:41;;;;;;;4.93;4.50;;;22.70;99.90;;;;;;5086834;28;20187;-45
2022/08/24 06:23:07;;;;;;;4.57;4.17;;;22.70;99.90;;;;;;5087964;28;20188;-43
2022/08/24 06:28:17;;;;;;;7.43;4.47;;;22.70;99.90;;;;;;5076288;28;20477;-43
2022/08/24 06:30:43;;;;;;;4.80;4.40;;;22.80;99.90;;;;;;5087478;28;20423;-44
2022/08/24 06:33:09;;;;;;;4.17;3.80;;;23.00;99.90;;;;;;5088223;28;20210;-43
2022/08/24 06:35:35;;;;;;;4.73;4.03;;;23.10;99.90;;;;;;5090542;28;20515;-44
2022/08/24 06:38:00;;;;;;;4.57;4.17;;;23.20;99.90;;;;;;5094650;28;20187;-43
2022/08/24 06:40:26;;;;;;;4.63;4.23;;;23.30;99.90;;;;;;5095478;28;20188;-43
2022/08/24 06:42:52;;;;;;;5.43;4.20;;;23.30;99.90;;;;;;5095294;28;20271;-44
2022/08/24 06:45:20;;;;;;;6.30;4.20;;;23.40;99.90;;;;;;5095083;28;20459;-45
2022/08/24 06:47:46;;;;;;;3.97;3.67;;;23.40;99.90;;;;;;5094889;28;20471;-46
2022/08/24 06:50:12;;;;;;;4.43;4.03;;;23.50;99.90;;;;;;5095335;28;20426;-46
2022/08/24 06:52:38;;;;;;;7.13;3.93;;;23.50;99.80;;;;;;5092483;28;20944;-48
2022/08/24 06:55:05;;;;;;;7.77;4.40;;;23.40;99.80;;;;;;5095424;28;20472;-44
2022/08/24 06:57:31;;;;;;;4.40;4.00;;;23.40;99.90;;;;;;5093766;28;20992;-45
2022/08/24 06:59:57;;;;;;;5.60;4.30;;;23.30;99.90;;;;;;5095236;28;20604;-45
2022/08/24 07:02:23;;;;;;;5.93;4.60;;;23.30;99.90;;;;;;5095094;28;20192;-46
2022/08/24 07:04:49;;;;;;;4.80;4.30;;;23.30;99.90;;;;;;5094960;28;20449;-48
2022/08/24 07:07:15;;;;;;;4.33;3.43;;;23.40;99.90;;;;;;5094605;28;20211;-46
2022/08/24 07:09:41;;;;;;;4.93;4.27;;;23.50;99.90;;;;;;5094863;28;20561;-44
2022/08/24 07:12:06;;;;;;;4.80;4.30;;;23.50;99.90;;;;;;5094852;28;20533;-46
2022/08/24 07:14:32;;;;;;;5.13;3.97;;;23.60;99.90;;;;;;5095326;28;20258;-46
2022/08/24 07:16:58;;;;;;;5.07;4.10;;;23.60;99.90;;;;;;5094777;28;20256;-46
2022/08/24 07:19:24;;;;;;;4.03;3.63;;;23.70;99.90;;;;;;5095213;28;20192;-43
2022/08/24 07:21:54;;;;;;;4.83;4.33;;;23.80;99.90;;;;;;5094034;28;20188;-49
2022/08/24 07:24:20;;;;;;;4.10;3.70;;;23.90;99.50;;;;;;5094989;28;20184;-48
2022/08/24 07:26:45;;;;;;;4.50;4.10;;;24.00;99.10;;;;;;5094579;28;20430;-47
2022/08/24 07:29:14;;;;;;;4.83;4.30;;;24.10;99.00;;;;;;5093619;28;20493;-49
2022/08/24 07:31:42;;;;;;;4.57;4.00;;;24.20;99.40;;;;;;5095323;28;20681;-50
2022/08/24 07:34:10;;;;;;;4.80;4.40;;;24.30;98.50;;;;;;5095333;28;20514;-45
2022/08/24 07:36:39;;;;;;;4.73;4.30;;;24.50;98.10;;;;;;5094502;28;20453;-46
2022/08/24 07:39:06;;;;;;;4.70;4.30;;;24.50;97.30;;;;;;5094685;28;20471;-45
2022/08/24 07:41:37;;;;;;;5.83;3.80;;;24.60;97.50;;;;;;5095077;28;20426;-44
2022/08/24 07:44:03;;;;;;;4.07;3.67;;;24.70;97.60;;;;;;5095395;28;20422;-44
2022/08/24 07:46:29;;;;;;;6.67;4.60;;;24.70;98.00;;;;;;5093068;28;20429;-43
2022/08/24 07:48:55;;;;;;;5.60;5.00;;;24.80;97.60;;;;;;5091420;28;20462;-43
2022/08/24 07:51:20;;;;;;;6.30;4.90;;;24.80;97.40;;;;;;5091753;28;20446;-44
2022/08/24 07:53:46;;;;;;;5.93;4.63;;;24.80;97.10;;;;;;5076649;28;20233;-44
2022/08/24 07:56:12;;;;;;;4.60;4.20;;;24.80;97.20;;;;;;5090771;28;20188;-44
2022/08/24 07:58:38;;;;;;;5.20;4.70;;;24.90;97.40;;;;;;5091130;28;20858;-46
2022/08/24 08:01:04;;;;;;;4.37;3.97;;;24.90;97.50;;;;;;5090344;28;20219;-44
2022/08/24 08:03:32;;;;;;;5.17;4.67;;;24.80;98.20;;;;;;5091555;28;20429;-45
2022/08/24 08:06:01;;;;;;;5.53;4.13;;;24.90;98.00;;;;;;5091457;28;20421;-48
2022/08/24 08:08:28;;;;;;;4.70;4.30;;;25.00;98.00;;;;;;5090915;28;20477;-43
2022/08/24 08:10:53;;;;;;;4.57;4.17;;;25.00;98.10;;;;;;5091684;28;20462;-45
2022/08/24 08:13:19;;;;;;;6.20;4.83;;;24.90;98.60;;;;;;5091435;28;20856;-44
2022/08/24 08:15:45;;;;;;;5.63;4.23;;;24.90;98.80;;;;;;5090082;28;20168;-46
2022/08/24 08:18:12;;;;;;;5.90;3.97;;;24.80;98.70;;;;;;5090584;28;20430;-43
2022/08/24 08:20:39;;;;;;;5.43;4.47;;;24.80;98.80;;;;;;5090923;28;20921;-42
2022/08/24 08:25:53;;;;;;;5.33;4.30;;;24.90;97.80;;;;;;5091250;28;20426;-44
2022/08/24 08:28:19;;;;;;;4.67;4.27;;;24.90;97.90;;;;;;5090442;28;20522;-44
2022/08/24 08:30:46;;;;;;;4.87;4.47;;;25.00;97.20;;;;;;5091197;28;20757;-43
2022/08/24 08:33:12;;;;;;;5.97;4.30;;;25.00;97.40;;;;;;5090698;28;20890;-48
2022/08/24 08:35:40;;;;;;;5.63;4.00;;;25.10;97.60;;;;;;5090880;28;20403;-43
2022/08/24 08:38:07;;;;;;;4.40;4.10;;;25.20;97.90;;;;;;5090196;28;20947;-44
2022/08/24 08:41:07;;;;;;;4.30;3.80;;;25.20;98.30;;;;;;5090992;28;20422;-45
2022/08/24 08:44:14;;;;;;;5.57;4.13;;;25.30;98.40;;;;;;5090483;28;20418;-48
2022/08/24 08:47:19;;;;;;;5.67;4.37;;;25.40;98.60;;;;;;5046889;28;20435;-45
2022/08/24 08:50:00;;;;;;;7.00;3.97;;;25.50;98.00;;;;;;5080626;28;20602;-45
2022/08/24 08:52:47;;;;;;;5.10;3.93;;;25.50;98.20;;;;;;5089291;28;21127;-48
2022/08/24 08:55:40;;;;;;;4.70;3.80;;;25.60;97.70;;;;;;5090621;28;20415;-43
2022/08/24 08:58:32;;;;;;;6.83;3.70;;;25.70;97.70;;;;;;5084357;28;20430;-47
2022/08/24 09:01:31;;;;;;;4.70;4.00;;;25.70;97.30;;;;;;5090671;28;20419;-45
2022/08/24 09:04:02;;;;;;;5.47;3.57;;;25.90;96.90;;;;;;5066600;28;20457;-44
2022/08/24 09:06:53;;;;;;;4.53;3.80;;;26.00;95.90;;;;;;5090070;28;20410;-48
2022/08/24 09:09:34;;;;;;;4.20;3.80;;;26.20;95.60;;;;;;5090345;28;21098;-43
2022/08/24 09:12:30;;;;;;;4.67;3.80;;;26.30;94.70;;;;;;5090275;28;20475;-44
2022/08/24 09:15:24;;;;;;;4.20;3.20;;;26.40;95.00;;;;;;5065812;28;20481;-44
2022/08/24 09:18:24;;;;;;;4.53;3.80;;;26.50;96.60;;;;;;5068975;28;20430;-42
2022/08/24 09:21:18;;;;;;;6.83;4.00;;;26.60;95.50;;;;;;5090170;28;20428;-45
2022/08/24 09:24:00;;;;;;;5.37;4.40;;;26.70;94.70;;;;;;5089867;28;20410;-44
2022/08/24 09:26:40;;;;;;;6.83;3.60;;;26.80;95.30;;;;;;5088784;28;20544;-44
2022/08/24 09:29:17;;;;;;;7.87;3.90;;;26.90;95.90;;;;;;5088484;28;20454;-47
2022/08/24 09:32:02;;;;;;;9.17;4.10;;;27.00;95.10;;;;;;5089804;28;20434;-47
2022/08/24 09:34:44;;;;;;;4.20;3.67;;;27.10;95.60;;;;;;5090061;28;20801;-45
2022/08/24 09:37:32;;;;;;;5.17;3.40;;;27.30;95.60;;;;;;5089143;28;20479;-44
2022/08/24 09:39:58;;;;;;;3.93;3.50;;;27.40;94.50;;;;;;5089709;28;20421;-44
2022/08/24 09:42:35;;;;;;;4.27;3.50;;;27.50;93.70;;;;;;5088531;28;20426;-43
2022/08/24 09:45:29;;;;;;;4.03;3.63;;;27.60;94.70;;;;;;5089820;28;20293;-43
2022/08/24 09:48:29;;;;;;;3.40;3.10;;;27.70;94.40;;;;;;5088970;28;20545;-48
2022/08/24 09:51:16;;;;;;;3.70;3.40;;;27.90;93.60;;;;;;5083874;28;20449;-46
2022/08/24 09:53:42;;;;;;;5.23;3.67;;;28.10;92.90;;;;;;5076002;28;20449;-45
2022/08/24 09:56:26;;;;;;;4.27;3.50;;;28.20;94.10;;;;;;5088580;28;20457;-45
2022/08/24 09:59:10;;;;;;;3.33;3.03;;;28.20;93.20;;;;;;5087606;28;20215;-44
2022/08/24 10:02:03;;;;;;;10.60;3.47;;;28.40;93.70;;;;;;5089492;28;20734;-45
2022/08/24 10:05:05;;;;;;;3.70;3.30;;;28.50;92.40;;;;;;5089191;28;20495;-44
2022/08/24 10:07:47;;;;;;;3.97;2.63;;;28.60;92.70;;;;;;5088868;28;20469;-43
2022/08/24 10:10:19;;;;;;;3.90;3.13;;;28.70;92.40;;;;;;5087076;28;20441;-48
2022/08/24 10:12:58;;;;;;;3.80;2.97;;;28.80;90.90;;;;;;5089220;28;20900;-45
2022/08/24 10:15:41;;;;;;;4.97;3.10;;;28.90;90.80;;;;;;5087738;28;21180;-44
2022/08/24 10:18:31;;;;;;;5.43;3.40;;;28.90;91.60;;;;;;5088630;28;20456;-44
2022/08/24 10:21:17;;;;;;;4.43;3.50;;;29.00;91.10;;;;;;5088924;28;20432;-45
2022/08/24 10:23:58;;;;;;;7.37;3.70;;;29.10;91.60;;;;;;5088949;28;20414;-43
2022/08/24 10:27:01;;;;;;;5.90;3.77;;;29.20;91.10;;;;;;5089129;28;20418;-48
2022/08/24 10:29:45;;;;;;;4.70;3.70;;;29.30;91.30;;;;;;5088905;28;20527;-45
2022/08/24 10:32:32;;;;;;;3.97;3.57;;;29.30;90.60;;;;;;5088899;28;20460;-47
2022/08/24 10:35:06;;;;;;;6.17;3.80;;;29.30;88.40;;;;;;5089062;28;20422;-45
2022/08/24 10:37:46;;;;;;;4.70;3.70;;;29.30;89.10;;;;;;5088072;28;20418;-43
2022/08/24 10:40:39;;;;;;;4.50;3.73;;;29.40;90.90;;;;;;5088789;28;20743;-45
2022/08/24 10:46:27;;;;;;;3.77;3.37;;;29.50;91.20;;;;;;5088955;28;20929;-46
2022/08/24 10:49:24;;;;;;;3.97;3.60;;;29.60;89.30;;;;;;5087851;28;20496;-45
2022/08/24 10:52:14;;;;;;;4.40;4.00;;;29.70;90.50;;;;;;5088491;28;20427;-46
2022/08/24 10:54:40;;;;;;;3.83;3.30;;;29.80;89.30;;;;;;5088836;28;20454;-45
2022/08/24 10:57:17;;;;;;;5.13;3.80;;;29.80;88.90;;;;;;5085089;28;20430;-47
2022/08/24 11:00:01;;;;;;;5.63;4.50;;;29.90;86.60;;;;;;5089057;28;20203;-46
2022/08/24 11:02:29;;;;;;;5.67;4.40;;;29.90;88.90;;;;;;5088707;28;20421;-48
2022/08/24 11:04:58;;;;;;;5.47;5.00;;;30.00;88.60;;;;;;5088695;28;21000;-43
2022/08/24 11:07:25;;;;;;;5.17;3.70;;;30.00;87.50;;;;;;5087819;28;20418;-42
2022/08/24 11:09:57;;;;;;;6.50;4.57;;;30.00;88.90;;;;;;5087415;28;20554;-46
2022/08/24 11:12:30;;;;;;;5.57;4.60;;;30.10;87.10;;;;;;5088633;28;20425;-49
2022/08/24 11:15:16;;;;;;;4.50;4.10;;;30.10;85.80;;;;;;5088840;28;20429;-45
2022/08/24 11:18:02;;;;;;;4.93;4.43;;;30.10;88.20;;;;;;5087677;28;20434;-40
2022/08/24 11:20:38;;;;;;;4.70;4.13;;;30.10;88.00;;;;;;5088857;28;20430;-41
2022/08/24 11:23:21;;;;;;;5.27;3.97;;;30.20;90.00;;;;;;5091599;28;20422;-43
2022/08/24 11:26:18;;;;;;;7.30;3.90;;;30.30;89.10;;;;;;5092328;28;20449;-38
2022/08/24 11:28:51;;;;;;;4.47;4.07;;;30.40;89.60;;;;;;5089793;28;20478;-39
2022/08/24 11:31:40;;;;;;;5.70;4.20;;;30.50;85.00;;;;;;5091147;28;20414;-40
2022/08/24 11:34:15;;;;;;;5.23;4.20;;;30.50;88.80;;;;;;5092097;28;20830;-40
2022/08/24 11:36:41;;;;;;;4.10;3.80;;;30.60;90.10;;;;;;5091574;28;20954;-40
2022/08/24 11:39:29;;;;;;;6.17;4.30;;;30.70;89.30;;;;;;5091720;28;20521;-43
2022/08/24 11:42:17;;;;;;;7.10;4.00;;;30.70;87.80;;;;;;5090968;28;20215;-39
2022/08/24 11:44:55;;;;;;;4.57;4.07;;;30.90;88.10;;;;;;5091946;28;20457;-39
2022/08/24 11:47:46;;;;;;;7.60;4.00;;;30.90;83.40;;;;;;5091414;28;20435;-39
2022/08/24 11:50:30;;;;;;;4.10;3.80;;;30.90;83.10;;;;;;5091788;28;20800;-41
2022/08/24 11:53:24;;;;;;;5.77;4.00;;;31.00;86.60;;;;;;5091909;28;20410;-40
2022/08/24 11:56:09;;;;;;;4.63;3.43;;;31.00;83.90;;;;;;5090336;28;20425;-39
2022/08/24 11:58:46;;;;;;;4.50;4.10;;;31.00;84.50;;;;;;5090883;28;20982;-39
2022/08/24 12:01:39;;;;;;;6.60;3.97;;;31.00;80.80;;;;;;5091898;28;20819;-40
2022/08/24 12:04:29;;;;;;;4.93;4.17;;;30.90;79.00;;;;;;5091604;28;20426;-40
2022/08/24 12:06:58;;;;;;;4.47;3.83;;;31.00;80.40;;;;;;5090969;28;21070;-41
2022/08/24 12:09:49;;;;;;;6.23;3.47;;;30.90;78.60;;;;;;5091532;28;20454;-42
2022/08/24 12:12:24;;;;;;;5.60;3.50;;;31.00;78.30;;;;;;5091542;28;20422;-40
2022/08/24 12:15:16;;;;;;;4.30;3.90;;;31.10;81.80;;;;;;5091558;28;20425;-42
2022/08/24 12:17:59;;;;;;;4.23;3.60;;;31.10;76.80;;;;;;5090970;28;20415;-38
2022/08/24 12:20:43;;;;;;;6.50;4.40;;;31.00;77.10;;;;;;5090884;28;20442;-41
2022/08/24 12:23:31;;;;;;;4.10;3.50;;;31.00;80.40;;;;;;5090726;28;20498;-41
2022/08/24 12:26:07;;;;;;;4.47;3.90;;;31.10;79.30;;;;;;5088306;28;20560;-40
2022/08/24 12:28:53;;;;;;;6.27;4.13;;;31.20;81.00;;;;;;5087993;28;20446;-41
2022/08/24 12:31:41;;;;;;;4.50;3.90;;;31.20;80.20;;;;;;5090893;28;20421;-39
2022/08/24 12:34:20;;;;;;;4.37;3.97;;;31.30;79.00;;;;;;5089714;28;20414;-41
2022/08/24 12:37:13;;;;;;;4.10;3.70;;;31.30;80.60;;;;;;5089875;28;20838;-39
2022/08/24 12:39:52;;;;;;;4.50;3.90;;;31.40;81.80;;;;;;5089450;28;20509;-40
2022/08/24 12:42:33;;;;;;;4.50;4.03;;;31.40;77.10;;;;;;5089308;28;20433;-40
2022/08/24 12:45:05;;;;;;;5.03;3.80;;;31.40;75.30;;;;;;5089310;28;20418;-39
2022/08/24 12:47:47;;;;;;;6.30;3.83;;;31.40;77.10;;;;;;5089549;28;20529;-41
2022/08/24 12:50:26;;;;;;;4.57;4.17;;;31.40;74.90;;;;;;5090000;28;20414;-40
2022/08/24 12:53:09;;;;;;;4.73;3.90;;;31.40;72.20;;;;;;5079767;28;20415;-42
2022/08/24 12:55:49;;;;;;;4.77;4.23;;;31.40;75.80;;;;;;5075802;28;20402;-44
2022/08/24 12:58:37;;;;;;;5.50;4.37;;;31.40;77.80;;;;;;5090099;28;20421;-44
2022/08/24 13:01:05;;;;;;;4.60;3.83;;;31.50;74.00;;;;;;5090578;28;20479;-41
2022/08/24 13:03:34;;;;;;;5.90;4.23;;;31.50;71.80;;;;;;5090423;28;20505;-43
2022/08/24 13:06:05;;;;;;;4.53;4.13;;;31.50;70.20;;;;;;5090033;28;20889;-42
2022/08/24 13:08:40;;;;;;;4.40;4.00;;;31.40;72.50;;;;;;5076386;28;20465;-42
2022/08/24 13:11:27;;;;;;;5.40;4.90;;;31.40;72.20;;;;;;5090317;28;20463;-41
2022/08/24 13:13:56;;;;;;;4.40;4.00;;;31.40;76.70;;;;;;5090322;28;20418;-40
2022/08/24 13:16:46;;;;;;;4.20;3.80;;;31.40;74.30;;;;;;5090015;28;20872;-38
2022/08/24 13:19:18;;;;;;;4.30;4.00;;;31.50;72.20;;;;;;5090236;28;20414;-43
2022/08/24 13:21:49;;;;;;;6.77;3.93;;;31.50;72.90;;;;;;5090201;28;20501;-39
2022/08/24 13:24:35;;;;;;;5.00;4.60;;;31.50;75.40;;;;;;5090010;28;20469;-41